Share Air
"01/12 @rjch_metar:RJCH 122200Z 01007KT 9999 FEW020 SCT040 BKN050 M08/M10 Q1020 [tweet auto post]" #nearair http://nearair.net/na.php?id=5235774


Tweet


Share




Copyright (C) 2011 Entatonic.net.
All Rights Reserved.